sensor_id;sensor_type;location;lat;lon;timestamp;P1;durP1;ratioP1;P2;durP2;ratioP2
64936;SDS011;51452;47.698;19.050;2023-03-11T00:01:06;0.63;;;0.40;;
64936;SDS011;51452;47.698;19.050;2023-03-11T00:03:31;1.70;;;0.70;;
64936;SDS011;51452;47.698;19.050;2023-03-11T00:05:58;0.50;;;0.40;;
64936;SDS011;51452;47.698;19.050;2023-03-11T00:08:25;0.80;;;0.47;;
64936;SDS011;51452;47.698;19.050;2023-03-11T00:10:56;1.17;;;0.53;;
64936;SDS011;51452;47.698;19.050;2023-03-11T00:13:24;0.83;;;0.40;;
64936;SDS011;51452;47.698;19.050;2023-03-11T00:15:50;0.60;;;0.40;;
64936;SDS011;51452;47.698;19.050;2023-03-11T00:18:20;0.30;;;0.30;;
64936;SDS011;51452;47.698;19.050;2023-03-11T00:20:49;0.60;;;0.47;;
64936;SDS011;51452;47.698;19.050;2023-03-11T00:23:15;0.67;;;0.60;;
64936;SDS011;51452;47.698;19.050;2023-03-11T00:25:42;0.40;;;0.40;;
64936;SDS011;51452;47.698;19.050;2023-03-11T00:28:09;0.53;;;0.40;;
64936;SDS011;51452;47.698;19.050;2023-03-11T00:30:35;0.40;;;0.40;;
64936;SDS011;51452;47.698;19.050;2023-03-11T00:33:02;1.10;;;0.53;;
64936;SDS011;51452;47.698;19.050;2023-03-11T00:35:28;0.43;;;0.40;;
64936;SDS011;51452;47.698;19.050;2023-03-11T00:37:59;0.60;;;0.50;;
64936;SDS011;51452;47.698;19.050;2023-03-11T00:40:27;1.07;;;0.50;;
64936;SDS011;51452;47.698;19.050;2023-03-11T00:42:54;0.90;;;0.50;;
64936;SDS011;51452;47.698;19.050;2023-03-11T00:45:20;1.00;;;0.50;;
64936;SDS011;51452;47.698;19.050;2023-03-11T00:47:46;0.40;;;0.40;;
64936;SDS011;51452;47.698;19.050;2023-03-11T00:50:13;2.03;;;0.53;;
64936;SDS011;51452;47.698;19.050;2023-03-11T00:52:44;0.50;;;0.50;;
64936;SDS011;51452;47.698;19.050;2023-03-11T00:55:12;0.83;;;0.53;;
64936;SDS011;51452;47.698;19.050;2023-03-11T00:57:39;0.80;;;0.50;;
64936;SDS011;51452;47.698;19.050;2023-03-11T01:00:06;0.43;;;0.37;;
64936;SDS011;51452;47.698;19.050;2023-03-11T01:02:35;0.67;;;0.40;;
64936;SDS011;51452;47.698;19.050;2023-03-11T01:05:02;1.20;;;0.60;;
64936;SDS011;51452;47.698;19.050;2023-03-11T01:07:28;0.77;;;0.57;;
64936;SDS011;51452;47.698;19.050;2023-03-11T01:09:53;0.40;;;0.40;;
64936;SDS011;51452;47.698;19.050;2023-03-11T01:12:22;0.47;;;0.40;;
64936;SDS011;51452;47.698;19.050;2023-03-11T01:14:47;0.63;;;0.50;;
64936;SDS011;51452;47.698;19.050;2023-03-11T01:17:13;1.37;;;0.50;;
64936;SDS011;51452;47.698;19.050;2023-03-11T01:19:41;1.73;;;0.60;;
64936;SDS011;51452;47.698;19.050;2023-03-11T01:22:06;1.07;;;0.50;;
64936;SDS011;51452;47.698;19.050;2023-03-11T01:24:32;2.20;;;0.50;;
64936;SDS011;51452;47.698;19.050;2023-03-11T01:26:57;0.63;;;0.50;;
64936;SDS011;51452;47.698;19.050;2023-03-11T01:29:23;1.57;;;0.60;;
64936;SDS011;51452;47.698;19.050;2023-03-11T01:31:48;1.07;;;0.50;;
64936;SDS011;51452;47.698;19.050;2023-03-11T01:34:14;1.07;;;0.60;;
64936;SDS011;51452;47.698;19.050;2023-03-11T01:36:39;2.13;;;0.80;;
64936;SDS011;51452;47.698;19.050;2023-03-11T01:39:05;8.80;;;0.80;;
64936;SDS011;51452;47.698;19.050;2023-03-11T01:41:30;1.10;;;0.47;;
64936;SDS011;51452;47.698;19.050;2023-03-11T01:43:56;0.70;;;0.50;;
64936;SDS011;51452;47.698;19.050;2023-03-11T01:48:53;0.97;;;0.57;;
64936;SDS011;51452;47.698;19.050;2023-03-11T01:51:24;1.37;;;0.67;;
64936;SDS011;51452;47.698;19.050;2023-03-11T01:53:53;0.60;;;0.50;;
64936;SDS011;51452;47.698;19.050;2023-03-11T01:56:20;1.60;;;0.50;;
64936;SDS011;51452;47.698;19.050;2023-03-11T01:58:48;2.17;;;0.70;;
64936;SDS011;51452;47.698;19.050;2023-03-11T02:01:16;1.60;;;0.50;;
64936;SDS011;51452;47.698;19.050;2023-03-11T02:03:43;0.80;;;0.43;;
64936;SDS011;51452;47.698;19.050;2023-03-11T02:06:10;1.00;;;0.60;;
64936;SDS011;51452;47.698;19.050;2023-03-11T02:08:39;1.07;;;0.57;;
64936;SDS011;51452;47.698;19.050;2023-03-11T02:11:07;1.60;;;0.60;;
64936;SDS011;51452;47.698;19.050;2023-03-11T02:13:35;1.50;;;0.60;;
64936;SDS011;51452;47.698;19.050;2023-03-11T02:16:02;1.27;;;0.50;;
64936;SDS011;51452;47.698;19.050;2023-03-11T02:18:28;1.57;;;0.60;;
64936;SDS011;51452;47.698;19.050;2023-03-11T02:23:27;1.17;;;0.50;;
64936;SDS011;51452;47.698;19.050;2023-03-11T02:26:12;1.40;;;0.60;;
64936;SDS011;51452;47.698;19.050;2023-03-11T02:28:44;1.13;;;0.63;;
64936;SDS011;51452;47.698;19.050;2023-03-11T02:31:13;1.37;;;0.50;;
64936;SDS011;51452;47.698;19.050;2023-03-11T02:33:40;0.67;;;0.50;;
64936;SDS011;51452;47.698;19.050;2023-03-11T02:36:28;0.90;;;0.60;;
64936;SDS011;51452;47.698;19.050;2023-03-11T02:38:59;0.77;;;0.53;;
64936;SDS011;51452;47.698;19.050;2023-03-11T02:41:24;1.67;;;0.40;;
64936;SDS011;51452;47.698;19.050;2023-03-11T02:43:51;1.07;;;0.50;;
64936;SDS011;51452;47.698;19.050;2023-03-11T02:46:17;1.07;;;0.40;;
64936;SDS011;51452;47.698;19.050;2023-03-11T02:48:44;1.87;;;0.67;;
64936;SDS011;51452;47.698;19.050;2023-03-11T02:51:10;2.83;;;0.50;;
64936;SDS011;51452;47.698;19.050;2023-03-11T02:53:37;1.03;;;0.57;;
64936;SDS011;51452;47.698;19.050;2023-03-11T02:56:07;1.17;;;0.60;;
64936;SDS011;51452;47.698;19.050;2023-03-11T02:58:32;3.17;;;0.70;;
64936;SDS011;51452;47.698;19.050;2023-03-11T03:00:57;3.30;;;0.57;;
64936;SDS011;51452;47.698;19.050;2023-03-11T03:03:23;2.30;;;0.70;;
64936;SDS011;51452;47.698;19.050;2023-03-11T03:05:48;2.30;;;0.50;;
64936;SDS011;51452;47.698;19.050;2023-03-11T03:08:14;2.00;;;0.60;;
64936;SDS011;51452;47.698;19.050;2023-03-11T03:10:39;0.43;;;0.43;;
64936;SDS011;51452;47.698;19.050;2023-03-11T03:13:05;2.57;;;0.50;;
64936;SDS011;51452;47.698;19.050;2023-03-11T03:15:30;2.43;;;0.70;;
64936;SDS011;51452;47.698;19.050;2023-03-11T03:17:56;1.03;;;0.50;;
64936;SDS011;51452;47.698;19.050;2023-03-11T03:20:21;2.47;;;0.47;;
64936;SDS011;51452;47.698;19.050;2023-03-11T03:22:47;1.23;;;0.57;;
64936;SDS011;51452;47.698;19.050;2023-03-11T03:25:13;0.93;;;0.50;;
64936;SDS011;51452;47.698;19.050;2023-03-11T03:27:38;2.03;;;0.60;;
64936;SDS011;51452;47.698;19.050;2023-03-11T03:30:04;2.10;;;0.80;;
64936;SDS011;51452;47.698;19.050;2023-03-11T03:32:31;0.40;;;0.40;;
64936;SDS011;51452;47.698;19.050;2023-03-11T03:34:57;2.43;;;0.70;;
64936;SDS011;51452;47.698;19.050;2023-03-11T03:37:24;2.03;;;0.60;;
64936;SDS011;51452;47.698;19.050;2023-03-11T03:39:50;2.70;;;0.60;;
64936;SDS011;51452;47.698;19.050;2023-03-11T03:42:16;1.17;;;0.73;;
64936;SDS011;51452;47.698;19.050;2023-03-11T03:44:41;2.80;;;0.73;;
64936;SDS011;51452;47.698;19.050;2023-03-11T03:47:13;0.70;;;0.57;;
64936;SDS011;51452;47.698;19.050;2023-03-11T03:49:38;6.07;;;0.60;;
64936;SDS011;51452;47.698;19.050;2023-03-11T03:52:04;0.93;;;0.50;;
64936;SDS011;51452;47.698;19.050;2023-03-11T03:54:30;3.33;;;0.77;;
64936;SDS011;51452;47.698;19.050;2023-03-11T03:56:56;5.13;;;1.00;;
64936;SDS011;51452;47.698;19.050;2023-03-11T03:59:22;2.07;;;0.40;;
64936;SDS011;51452;47.698;19.050;2023-03-11T04:01:47;3.30;;;0.67;;
64936;SDS011;51452;47.698;19.050;2023-03-11T04:04:13;3.30;;;0.50;;
64936;SDS011;51452;47.698;19.050;2023-03-11T04:06:38;0.73;;;0.30;;
64936;SDS011;51452;47.698;19.050;2023-03-11T04:09:04;1.63;;;0.60;;
64936;SDS011;51452;47.698;19.050;2023-03-11T04:11:32;2.13;;;0.60;;
64936;SDS011;51452;47.698;19.050;2023-03-11T04:13:57;0.60;;;0.40;;
64936;SDS011;51452;47.698;19.050;2023-03-11T04:16:23;0.77;;;0.57;;
64936;SDS011;51452;47.698;19.050;2023-03-11T04:18:49;1.23;;;0.60;;
64936;SDS011;51452;47.698;19.050;2023-03-11T04:21:14;2.03;;;0.50;;
64936;SDS011;51452;47.698;19.050;2023-03-11T04:23:40;1.17;;;0.60;;
64936;SDS011;51452;47.698;19.050;2023-03-11T04:26:05;3.87;;;0.60;;
64936;SDS011;51452;47.698;19.050;2023-03-11T04:28:31;2.83;;;0.60;;
64936;SDS011;51452;47.698;19.050;2023-03-11T04:31:02;3.53;;;0.60;;
64936;SDS011;51452;47.698;19.050;2023-03-11T04:33:28;1.33;;;0.50;;
64936;SDS011;51452;47.698;19.050;2023-03-11T04:35:53;1.50;;;0.50;;
64936;SDS011;51452;47.698;19.050;2023-03-11T04:38:22;0.60;;;0.30;;
64936;SDS011;51452;47.698;19.050;2023-03-11T04:40:47;10.83;;;0.70;;
64936;SDS011;51452;47.698;19.050;2023-03-11T04:43:13;5.27;;;0.70;;
64936;SDS011;51452;47.698;19.050;2023-03-11T04:45:39;2.90;;;0.60;;
64936;SDS011;51452;47.698;19.050;2023-03-11T04:48:06;5.10;;;0.70;;
64936;SDS011;51452;47.698;19.050;2023-03-11T04:50:32;1.57;;;0.70;;
64936;SDS011;51452;47.698;19.050;2023-03-11T04:52:58;6.73;;;0.60;;
64936;SDS011;51452;47.698;19.050;2023-03-11T04:55:23;3.63;;;0.50;;
64936;SDS011;51452;47.698;19.050;2023-03-11T04:57:49;1.33;;;0.50;;
64936;SDS011;51452;47.698;19.050;2023-03-11T05:00:14;0.60;;;0.50;;
64936;SDS011;51452;47.698;19.050;2023-03-11T05:02:40;3.30;;;0.63;;
64936;SDS011;51452;47.698;19.050;2023-03-11T05:05:09;2.60;;;0.60;;
64936;SDS011;51452;47.698;19.050;2023-03-11T05:07:35;1.00;;;0.80;;
64936;SDS011;51452;47.698;19.050;2023-03-11T05:10:01;2.03;;;0.90;;
64936;SDS011;51452;47.698;19.050;2023-03-11T05:12:27;2.70;;;0.60;;
64936;SDS011;51452;47.698;19.050;2023-03-11T05:14:53;2.27;;;0.70;;
64936;SDS011;51452;47.698;19.050;2023-03-11T05:17:18;9.30;;;1.07;;
64936;SDS011;51452;47.698;19.050;2023-03-11T05:19:44;9.63;;;0.80;;
64936;SDS011;51452;47.698;19.050;2023-03-11T05:22:09;1.83;;;0.70;;
64936;SDS011;51452;47.698;19.050;2023-03-11T05:24:35;4.10;;;0.70;;
64936;SDS011;51452;47.698;19.050;2023-03-11T05:27:01;0.90;;;0.57;;
64936;SDS011;51452;47.698;19.050;2023-03-11T05:29:27;0.40;;;0.40;;
64936;SDS011;51452;47.698;19.050;2023-03-11T05:31:53;2.10;;;0.40;;
64936;SDS011;51452;47.698;19.050;2023-03-11T05:34:24;0.90;;;0.50;;
64936;SDS011;51452;47.698;19.050;2023-03-11T05:36:49;2.30;;;0.70;;
64936;SDS011;51452;47.698;19.050;2023-03-11T05:39:15;10.03;;;0.87;;
64936;SDS011;51452;47.698;19.050;2023-03-11T05:41:43;0.70;;;0.60;;
64936;SDS011;51452;47.698;19.050;2023-03-11T05:44:09;0.60;;;0.37;;
64936;SDS011;51452;47.698;19.050;2023-03-11T05:46:34;0.53;;;0.40;;
64936;SDS011;51452;47.698;19.050;2023-03-11T05:48:59;2.70;;;0.47;;
64936;SDS011;51452;47.698;19.050;2023-03-11T05:51:25;1.53;;;0.90;;
64936;SDS011;51452;47.698;19.050;2023-03-11T05:53:51;1.23;;;0.60;;
64936;SDS011;51452;47.698;19.050;2023-03-11T05:56:20;3.87;;;0.77;;
64936;SDS011;51452;47.698;19.050;2023-03-11T05:58:46;1.23;;;0.60;;
64936;SDS011;51452;47.698;19.050;2023-03-11T06:01:13;2.73;;;1.00;;
64936;SDS011;51452;47.698;19.050;2023-03-11T06:03:43;1.03;;;0.63;;
64936;SDS011;51452;47.698;19.050;2023-03-11T06:06:09;3.03;;;0.60;;
64936;SDS011;51452;47.698;19.050;2023-03-11T06:08:36;0.90;;;0.60;;
64936;SDS011;51452;47.698;19.050;2023-03-11T06:11:06;0.57;;;0.40;;
64936;SDS011;51452;47.698;19.050;2023-03-11T06:13:33;1.50;;;0.57;;
64936;SDS011;51452;47.698;19.050;2023-03-11T06:15:59;3.20;;;0.50;;
64936;SDS011;51452;47.698;19.050;2023-03-11T06:18:25;2.33;;;0.60;;
64936;SDS011;51452;47.698;19.050;2023-03-11T06:20:52;0.67;;;0.50;;
64936;SDS011;51452;47.698;19.050;2023-03-11T06:23:23;0.87;;;0.50;;
64936;SDS011;51452;47.698;19.050;2023-03-11T06:25:59;2.30;;;1.00;;
64936;SDS011;51452;47.698;19.050;2023-03-11T06:28:29;1.20;;;0.60;;
64936;SDS011;51452;47.698;19.050;2023-03-11T06:30:55;1.20;;;0.70;;
64936;SDS011;51452;47.698;19.050;2023-03-11T06:33:30;1.83;;;0.70;;
64936;SDS011;51452;47.698;19.050;2023-03-11T06:35:56;4.13;;;0.80;;
64936;SDS011;51452;47.698;19.050;2023-03-11T06:38:22;1.40;;;0.70;;
64936;SDS011;51452;47.698;19.050;2023-03-11T06:40:48;1.40;;;0.80;;
64936;SDS011;51452;47.698;19.050;2023-03-11T06:43:13;1.50;;;0.70;;
64936;SDS011;51452;47.698;19.050;2023-03-11T06:45:39;1.40;;;0.80;;
64936;SDS011;51452;47.698;19.050;2023-03-11T06:48:04;1.23;;;0.70;;
64936;SDS011;51452;47.698;19.050;2023-03-11T06:50:30;0.83;;;0.70;;
64936;SDS011;51452;47.698;19.050;2023-03-11T06:52:55;0.80;;;0.67;;
64936;SDS011;51452;47.698;19.050;2023-03-11T06:55:21;0.90;;;0.73;;
64936;SDS011;51452;47.698;19.050;2023-03-11T06:57:46;1.70;;;0.83;;
64936;SDS011;51452;47.698;19.050;2023-03-11T07:00:12;0.80;;;0.60;;
64936;SDS011;51452;47.698;19.050;2023-03-11T07:02:39;0.80;;;0.60;;
64936;SDS011;51452;47.698;19.050;2023-03-11T07:05:04;0.87;;;0.77;;
64936;SDS011;51452;47.698;19.050;2023-03-11T07:07:31;1.37;;;0.87;;
64936;SDS011;51452;47.698;19.050;2023-03-11T07:09:56;1.73;;;0.70;;
64936;SDS011;51452;47.698;19.050;2023-03-11T07:12:22;1.30;;;0.60;;
64936;SDS011;51452;47.698;19.050;2023-03-11T07:14:52;1.00;;;0.77;;
64936;SDS011;51452;47.698;19.050;2023-03-11T07:17:25;1.97;;;0.80;;
64936;SDS011;51452;47.698;19.050;2023-03-11T07:19:53;1.33;;;0.80;;
64936;SDS011;51452;47.698;19.050;2023-03-11T07:22:21;0.90;;;0.63;;
64936;SDS011;51452;47.698;19.050;2023-03-11T07:24:47;0.83;;;0.60;;
64936;SDS011;51452;47.698;19.050;2023-03-11T07:27:13;2.13;;;0.70;;
64936;SDS011;51452;47.698;19.050;2023-03-11T07:29:39;0.70;;;0.47;;
64936;SDS011;51452;47.698;19.050;2023-03-11T07:32:07;1.30;;;1.07;;
64936;SDS011;51452;47.698;19.050;2023-03-11T07:34:33;1.27;;;0.70;;
64936;SDS011;51452;47.698;19.050;2023-03-11T07:36:59;1.33;;;0.80;;
64936;SDS011;51452;47.698;19.050;2023-03-11T07:39:24;3.60;;;0.70;;
64936;SDS011;51452;47.698;19.050;2023-03-11T07:41:53;1.97;;;0.77;;
64936;SDS011;51452;47.698;19.050;2023-03-11T07:44:18;1.13;;;0.80;;
64936;SDS011;51452;47.698;19.050;2023-03-11T07:46:44;1.27;;;0.80;;
64936;SDS011;51452;47.698;19.050;2023-03-11T07:49:09;2.27;;;0.80;;
64936;SDS011;51452;47.698;19.050;2023-03-11T07:51:36;3.33;;;0.80;;
64936;SDS011;51452;47.698;19.050;2023-03-11T07:54:02;1.00;;;0.60;;
64936;SDS011;51452;47.698;19.050;2023-03-11T07:56:30;6.17;;;0.83;;
64936;SDS011;51452;47.698;19.050;2023-03-11T07:58:57;5.53;;;0.73;;
64936;SDS011;51452;47.698;19.050;2023-03-11T08:01:26;4.10;;;0.90;;
64936;SDS011;51452;47.698;19.050;2023-03-11T08:03:59;1.67;;;0.80;;
64936;SDS011;51452;47.698;19.050;2023-03-11T08:06:27;5.47;;;1.00;;
64936;SDS011;51452;47.698;19.050;2023-03-11T08:08:55;1.40;;;0.73;;
64936;SDS011;51452;47.698;19.050;2023-03-11T08:11:21;1.20;;;0.83;;
64936;SDS011;51452;47.698;19.050;2023-03-11T08:13:47;1.20;;;0.90;;
64936;SDS011;51452;47.698;19.050;2023-03-11T08:16:13;2.70;;;0.70;;
64936;SDS011;51452;47.698;19.050;2023-03-11T08:18:40;1.73;;;0.70;;
64936;SDS011;51452;47.698;19.050;2023-03-11T08:21:08;1.30;;;0.70;;
64936;SDS011;51452;47.698;19.050;2023-03-11T08:23:35;4.00;;;0.87;;
64936;SDS011;51452;47.698;19.050;2023-03-11T08:26:08;0.97;;;0.70;;
64936;SDS011;51452;47.698;19.050;2023-03-11T08:28:36;1.90;;;0.93;;
64936;SDS011;51452;47.698;19.050;2023-03-11T08:31:02;2.77;;;1.07;;
64936;SDS011;51452;47.698;19.050;2023-03-11T08:33:36;4.83;;;1.10;;
64936;SDS011;51452;47.698;19.050;2023-03-11T08:36:01;1.47;;;0.77;;
64936;SDS011;51452;47.698;19.050;2023-03-11T08:38:26;0.83;;;0.70;;
64936;SDS011;51452;47.698;19.050;2023-03-11T08:40:52;1.43;;;0.63;;
64936;SDS011;51452;47.698;19.050;2023-03-11T08:43:17;1.30;;;0.73;;
64936;SDS011;51452;47.698;19.050;2023-03-11T08:45:43;4.00;;;0.90;;
64936;SDS011;51452;47.698;19.050;2023-03-11T08:48:08;1.30;;;0.60;;
64936;SDS011;51452;47.698;19.050;2023-03-11T08:50:35;3.77;;;1.00;;
64936;SDS011;51452;47.698;19.050;2023-03-11T08:53:01;1.30;;;0.80;;
64936;SDS011;51452;47.698;19.050;2023-03-11T08:55:27;1.97;;;0.80;;
64936;SDS011;51452;47.698;19.050;2023-03-11T08:57:53;2.20;;;0.70;;
64936;SDS011;51452;47.698;19.050;2023-03-11T09:00:18;0.97;;;0.70;;
64936;SDS011;51452;47.698;19.050;2023-03-11T09:02:44;2.90;;;0.90;;
64936;SDS011;51452;47.698;19.050;2023-03-11T09:05:10;6.67;;;0.70;;
64936;SDS011;51452;47.698;19.050;2023-03-11T09:07:35;9.43;;;0.97;;
64936;SDS011;51452;47.698;19.050;2023-03-11T09:10:01;1.83;;;0.90;;
64936;SDS011;51452;47.698;19.050;2023-03-11T09:12:29;2.47;;;0.73;;
64936;SDS011;51452;47.698;19.050;2023-03-11T09:14:54;4.17;;;0.53;;
64936;SDS011;51452;47.698;19.050;2023-03-11T09:17:23;1.37;;;0.70;;
64936;SDS011;51452;47.698;19.050;2023-03-11T09:19:48;5.50;;;0.80;;
64936;SDS011;51452;47.698;19.050;2023-03-11T09:22:14;0.80;;;0.63;;
64936;SDS011;51452;47.698;19.050;2023-03-11T09:24:39;5.03;;;0.90;;
64936;SDS011;51452;47.698;19.050;2023-03-11T09:27:05;1.77;;;0.93;;
64936;SDS011;51452;47.698;19.050;2023-03-11T09:29:30;2.73;;;0.80;;
64936;SDS011;51452;47.698;19.050;2023-03-11T09:31:55;12.43;;;0.90;;
64936;SDS011;51452;47.698;19.050;2023-03-11T09:34:21;5.03;;;1.90;;
64936;SDS011;51452;47.698;19.050;2023-03-11T09:36:46;6.43;;;1.20;;
64936;SDS011;51452;47.698;19.050;2023-03-11T09:39:12;1.70;;;0.80;;
64936;SDS011;51452;47.698;19.050;2023-03-11T09:41:40;5.00;;;1.03;;
64936;SDS011;51452;47.698;19.050;2023-03-11T09:51:50;7.03;;;1.00;;
64936;SDS011;51452;47.698;19.050;2023-03-11T09:54:46;9.43;;;0.90;;
64936;SDS011;51452;47.698;19.050;2023-03-11T09:57:29;5.20;;;1.83;;
64936;SDS011;51452;47.698;19.050;2023-03-11T09:59:57;1.83;;;0.60;;
64936;SDS011;51452;47.698;19.050;2023-03-11T10:02:25;6.60;;;0.80;;
64936;SDS011;51452;47.698;19.050;2023-03-11T10:07:20;4.07;;;0.80;;
64936;SDS011;51452;47.698;19.050;2023-03-11T10:09:52;0.90;;;0.50;;
64936;SDS011;51452;47.698;19.050;2023-03-11T10:14:48;1.37;;;0.80;;
64936;SDS011;51452;47.698;19.050;2023-03-11T10:22:58;1.30;;;0.80;;
64936;SDS011;51452;47.698;19.050;2023-03-11T10:28:27;4.37;;;0.80;;
64936;SDS011;51452;47.698;19.050;2023-03-11T10:31:02;5.03;;;0.80;;
64936;SDS011;51452;47.698;19.050;2023-03-11T10:36:04;0.73;;;0.63;;
64936;SDS011;51452;47.698;19.050;2023-03-11T10:38:39;3.97;;;0.87;;
64936;SDS011;51452;47.698;19.050;2023-03-11T10:41:26;1.53;;;0.90;;
64936;SDS011;51452;47.698;19.050;2023-03-11T10:44:18;2.57;;;0.80;;
64936;SDS011;51452;47.698;19.050;2023-03-11T10:46:49;2.50;;;0.80;;
64936;SDS011;51452;47.698;19.050;2023-03-11T10:49:15;2.87;;;0.70;;
64936;SDS011;51452;47.698;19.050;2023-03-11T10:51:46;1.27;;;0.80;;
64936;SDS011;51452;47.698;19.050;2023-03-11T10:54:27;1.23;;;0.80;;
64936;SDS011;51452;47.698;19.050;2023-03-11T10:57:05;2.37;;;0.83;;
64936;SDS011;51452;47.698;19.050;2023-03-11T10:59:51;1.53;;;0.90;;
64936;SDS011;51452;47.698;19.050;2023-03-11T11:05:05;2.40;;;0.93;;
64936;SDS011;51452;47.698;19.050;2023-03-11T11:07:40;1.30;;;0.90;;
64936;SDS011;51452;47.698;19.050;2023-03-11T11:10:26;2.50;;;0.97;;
64936;SDS011;51452;47.698;19.050;2023-03-11T11:15:37;1.97;;;1.00;;
64936;SDS011;51452;47.698;19.050;2023-03-11T11:18:13;1.40;;;0.70;;
64936;SDS011;51452;47.698;19.050;2023-03-11T11:21:44;1.60;;;0.73;;
64936;SDS011;51452;47.698;19.050;2023-03-11T11:23:42;2.37;;;0.90;;
64936;SDS011;51452;47.698;19.050;2023-03-11T11:26:16;1.93;;;0.67;;
64936;SDS011;51452;47.698;19.050;2023-03-11T11:28:44;1.60;;;1.00;;
64936;SDS011;51452;47.698;19.050;2023-03-11T11:31:23;2.00;;;0.87;;
64936;SDS011;51452;47.698;19.050;2023-03-11T11:33:52;1.87;;;0.80;;
64936;SDS011;51452;47.698;19.050;2023-03-11T11:36:24;1.40;;;1.00;;
64936;SDS011;51452;47.698;19.050;2023-03-11T11:39:00;3.07;;;1.00;;
64936;SDS011;51452;47.698;19.050;2023-03-11T11:41:29;5.17;;;0.90;;
64936;SDS011;51452;47.698;19.050;2023-03-11T11:44:03;1.10;;;0.90;;
64936;SDS011;51452;47.698;19.050;2023-03-11T11:46:38;1.80;;;0.80;;
64936;SDS011;51452;47.698;19.050;2023-03-11T11:51:40;1.50;;;0.90;;
64936;SDS011;51452;47.698;19.050;2023-03-11T11:54:22;0.90;;;0.70;;
64936;SDS011;51452;47.698;19.050;2023-03-11T11:56:54;1.80;;;0.93;;
64936;SDS011;51452;47.698;19.050;2023-03-11T11:59:21;3.47;;;0.97;;
64936;SDS011;51452;47.698;19.050;2023-03-11T12:10:51;5.13;;;0.90;;
64936;SDS011;51452;47.698;19.050;2023-03-11T12:18:23;1.00;;;0.70;;
64936;SDS011;51452;47.698;19.050;2023-03-11T12:20:54;3.60;;;1.10;;
64936;SDS011;51452;47.698;19.050;2023-03-11T12:23:27;1.53;;;0.90;;
64936;SDS011;51452;47.698;19.050;2023-03-11T12:26:16;1.50;;;1.00;;
64936;SDS011;51452;47.698;19.050;2023-03-11T12:28:51;4.17;;;1.00;;
64936;SDS011;51452;47.698;19.050;2023-03-11T12:31:22;1.20;;;0.93;;
64936;SDS011;51452;47.698;19.050;2023-03-11T12:33:56;2.90;;;0.97;;
64936;SDS011;51452;47.698;19.050;2023-03-11T12:36:36;3.57;;;1.00;;
64936;SDS011;51452;47.698;19.050;2023-03-11T12:39:06;1.57;;;0.90;;
64936;SDS011;51452;47.698;19.050;2023-03-11T12:41:43;1.37;;;0.90;;
64936;SDS011;51452;47.698;19.050;2023-03-11T12:49:33;1.35;;;0.80;;
64936;SDS011;51452;47.698;19.050;2023-03-11T12:54:38;1.40;;;1.00;;
64936;SDS011;51452;47.698;19.050;2023-03-11T13:02:19;1.80;;;1.10;;
64936;SDS011;51452;47.698;19.050;2023-03-11T13:08:06;4.97;;;1.30;;
64936;SDS011;51452;47.698;19.050;2023-03-11T13:10:45;3.20;;;1.10;;
64936;SDS011;51452;47.698;19.050;2023-03-11T13:18:41;3.88;;;1.35;;
64936;SDS011;51452;47.698;19.050;2023-03-11T13:43:19;1.90;;;1.10;;
64936;SDS011;51452;47.698;19.050;2023-03-11T13:45:49;1.47;;;1.13;;
64936;SDS011;51452;47.698;19.050;2023-03-11T13:48:29;2.07;;;1.33;;
64936;SDS011;51452;47.698;19.050;2023-03-11T13:53:28;1.43;;;1.10;;
64936;SDS011;51452;47.698;19.050;2023-03-11T13:56:29;1.70;;;1.17;;
64936;SDS011;51452;47.698;19.050;2023-03-11T13:59:22;1.97;;;1.27;;
64936;SDS011;51452;47.698;19.050;2023-03-11T14:01:53;1.93;;;1.40;;
64936;SDS011;51452;47.698;19.050;2023-03-11T14:04:24;2.10;;;1.40;;
64936;SDS011;51452;47.698;19.050;2023-03-11T14:06:52;1.50;;;1.20;;
64936;SDS011;51452;47.698;19.050;2023-03-11T14:09:18;2.53;;;1.43;;
64936;SDS011;51452;47.698;19.050;2023-03-11T14:11:45;2.40;;;1.40;;
64936;SDS011;51452;47.698;19.050;2023-03-11T14:14:26;2.00;;;1.30;;
64936;SDS011;51452;47.698;19.050;2023-03-11T14:16:58;1.92;;;1.35;;
64936;SDS011;51452;47.698;19.050;2023-03-11T14:19:29;2.13;;;1.20;;
64936;SDS011;51452;47.698;19.050;2023-03-11T14:21:57;1.43;;;1.07;;
64936;SDS011;51452;47.698;19.050;2023-03-11T14:26:53;2.23;;;1.23;;
64936;SDS011;51452;47.698;19.050;2023-03-11T14:29:27;2.50;;;1.20;;
64936;SDS011;51452;47.698;19.050;2023-03-11T14:32:23;2.30;;;1.20;;
64936;SDS011;51452;47.698;19.050;2023-03-11T14:34:54;1.60;;;1.20;;
64936;SDS011;51452;47.698;19.050;2023-03-11T14:37:41;2.73;;;1.60;;
64936;SDS011;51452;47.698;19.050;2023-03-11T14:40:26;3.47;;;1.40;;
64936;SDS011;51452;47.698;19.050;2023-03-11T14:42:58;2.37;;;1.50;;
64936;SDS011;51452;47.698;19.050;2023-03-11T14:45:30;1.83;;;1.23;;
64936;SDS011;51452;47.698;19.050;2023-03-11T14:50:44;2.00;;;1.40;;
64936;SDS011;51452;47.698;19.050;2023-03-11T14:53:14;2.13;;;1.50;;
64936;SDS011;51452;47.698;19.050;2023-03-11T14:55:48;2.47;;;1.50;;
64936;SDS011;51452;47.698;19.050;2023-03-11T15:01:29;3.13;;;1.70;;
64936;SDS011;51452;47.698;19.050;2023-03-11T15:04:04;2.43;;;1.30;;
64936;SDS011;51452;47.698;19.050;2023-03-11T15:06:36;2.57;;;1.47;;
64936;SDS011;51452;47.698;19.050;2023-03-11T15:09:15;1.80;;;1.33;;
64936;SDS011;51452;47.698;19.050;2023-03-11T15:11:50;4.03;;;1.83;;
64936;SDS011;51452;47.698;19.050;2023-03-11T15:17:08;3.53;;;1.93;;
64936;SDS011;51452;47.698;19.050;2023-03-11T15:19:42;2.60;;;1.80;;
64936;SDS011;51452;47.698;19.050;2023-03-11T15:24:48;2.47;;;1.60;;
64936;SDS011;51452;47.698;19.050;2023-03-11T15:32:44;3.00;;;1.60;;
64936;SDS011;51452;47.698;19.050;2023-03-11T15:37:41;2.40;;;1.73;;
64936;SDS011;51452;47.698;19.050;2023-03-11T15:40:28;2.57;;;1.50;;
64936;SDS011;51452;47.698;19.050;2023-03-11T15:45:41;2.10;;;1.60;;
64936;SDS011;51452;47.698;19.050;2023-03-11T15:48:08;2.27;;;1.57;;
64936;SDS011;51452;47.698;19.050;2023-03-11T15:50:51;2.33;;;1.60;;
64936;SDS011;51452;47.698;19.050;2023-03-11T15:53:19;2.10;;;1.40;;
64936;SDS011;51452;47.698;19.050;2023-03-11T15:55:45;2.33;;;1.40;;
64936;SDS011;51452;47.698;19.050;2023-03-11T15:58:16;2.77;;;1.60;;
64936;SDS011;51452;47.698;19.050;2023-03-11T16:00:46;2.97;;;1.57;;
64936;SDS011;51452;47.698;19.050;2023-03-11T16:03:20;3.60;;;1.70;;
64936;SDS011;51452;47.698;19.050;2023-03-11T16:05:47;2.93;;;1.73;;
64936;SDS011;51452;47.698;19.050;2023-03-11T16:08:16;1.77;;;1.33;;
64936;SDS011;51452;47.698;19.050;2023-03-11T16:10:44;3.90;;;1.83;;
64936;SDS011;51452;47.698;19.050;2023-03-11T16:13:14;1.90;;;1.33;;
64936;SDS011;51452;47.698;19.050;2023-03-11T16:15:43;2.53;;;1.50;;
64936;SDS011;51452;47.698;19.050;2023-03-11T16:18:10;2.07;;;1.37;;
64936;SDS011;51452;47.698;19.050;2023-03-11T16:20:45;2.30;;;1.67;;
64936;SDS011;51452;47.698;19.050;2023-03-11T16:23:26;1.60;;;1.30;;
64936;SDS011;51452;47.698;19.050;2023-03-11T16:28:27;2.70;;;1.60;;
64936;SDS011;51452;47.698;19.050;2023-03-11T16:30:53;2.83;;;1.40;;
64936;SDS011;51452;47.698;19.050;2023-03-11T16:33:21;2.40;;;1.10;;
64936;SDS011;51452;47.698;19.050;2023-03-11T16:35:57;2.00;;;1.40;;
64936;SDS011;51452;47.698;19.050;2023-03-11T16:38:26;2.80;;;1.77;;
64936;SDS011;51452;47.698;19.050;2023-03-11T16:40:57;2.30;;;1.40;;
64936;SDS011;51452;47.698;19.050;2023-03-11T16:43:24;3.47;;;1.60;;
64936;SDS011;51452;47.698;19.050;2023-03-11T16:45:50;3.40;;;1.40;;
64936;SDS011;51452;47.698;19.050;2023-03-11T16:48:18;3.87;;;1.60;;